Murdock, Nebraska
Current Conditions -  °F | °C
As of 11:15 PM on Friday 28 Nov 2014 (Local Time) from KPMV Reporting Station
Clear Clear  
Wind Chill: 43°   Ceiling: Unl
Heat Index: 47°   Visibility: 10mi
Dew Point: 33°   Wind: 8mph
Humidity: 58%   Direction: 200°SSW
Pressure: 29.61"   Gusts: NA
Location:  40.93°N, 96.28°W
Report Text: KPMV 290515Z AUTO 20007KT 10SM CLR 08/01 A2961 RMK AO2 T00840005
Loading
Personal Weather Stations






























Interactive Weather Map New forecast layout! Learn more

10-Day Weather Forecast

Advertisements
Track Severe Weather on mobile